Time;durP1;ratioP1;P1;durP2;ratioP2;P2;SDS_P1;SDS_P2;PMS_P1;PMS_P2;Temp;Humidity;BMP_temperature;BMP_pressure;BME280_temperature;BME280_humidity;BME280_pressure;Samples;Min_cycle;Max_cycle;Signal;HPM_P1;HPM_P2
2022/08/09 00:01:59;;;;;;;4.83;4.47;;;18.30;99.90;;;;;;5060764;28;20181;-65
2022/08/09 00:04:25;;;;;;;4.57;4.17;;;18.40;99.90;;;;;;5068391;28;20530;-65
2022/08/09 00:06:51;;;;;;;4.53;4.23;;;18.30;99.90;;;;;;5052796;28;20206;-65
2022/08/09 00:09:16;;;;;;;4.90;4.50;;;18.30;99.90;;;;;;5071165;28;20187;-67
2022/08/09 00:11:43;;;;;;;5.00;4.60;;;18.20;99.90;;;;;;5064009;28;20227;-64
2022/08/09 00:14:09;;;;;;;5.33;4.83;;;18.20;99.90;;;;;;5062333;28;20178;-64
2022/08/09 00:16:35;;;;;;;5.80;4.90;;;18.10;99.90;;;;;;5057378;28;20194;-65
2022/08/09 00:19:02;;;;;;;7.43;4.40;;;18.10;99.90;;;;;;5070887;28;20174;-65
2022/08/09 00:21:27;;;;;;;7.57;4.47;;;18.10;99.90;;;;;;5052729;28;20171;-64
2022/08/09 00:23:54;;;;;;;4.47;4.10;;;18.00;99.90;;;;;;5066933;28;20706;-65
2022/08/09 00:26:20;;;;;;;5.63;4.80;;;18.00;99.90;;;;;;5061355;28;20267;-63
2022/08/09 00:28:46;;;;;;;4.87;4.43;;;18.00;99.90;;;;;;5057866;28;20180;-64
2022/08/09 00:31:12;;;;;;;6.33;4.57;;;17.90;99.90;;;;;;5063435;28;20257;-64
2022/08/09 00:33:38;;;;;;;5.27;4.70;;;17.90;99.90;;;;;;5071536;28;20181;-66
2022/08/09 00:36:04;;;;;;;7.33;4.03;;;17.80;99.90;;;;;;5055529;28;20272;-63
2022/08/09 00:38:30;;;;;;;4.50;4.20;;;17.80;99.90;;;;;;5054843;28;20173;-64
2022/08/09 00:40:55;;;;;;;6.50;4.67;;;17.80;99.90;;;;;;5065091;28;20624;-66
2022/08/09 00:43:22;;;;;;;5.23;4.63;;;17.80;99.90;;;;;;5053633;28;20187;-64
2022/08/09 00:45:47;;;;;;;5.13;4.70;;;17.70;99.90;;;;;;5071283;28;20205;-63
2022/08/09 00:48:13;;;;;;;6.53;5.03;;;17.70;99.90;;;;;;5054586;28;20187;-64
2022/08/09 00:50:39;;;;;;;5.23;4.93;;;17.70;99.90;;;;;;5063840;28;20170;-64
2022/08/09 00:53:05;;;;;;;6.33;5.53;;;17.60;99.90;;;;;;5064340;28;20209;-64
2022/08/09 00:55:31;;;;;;;5.97;5.30;;;17.60;99.90;;;;;;5054218;28;20174;-65
2022/08/09 00:57:57;;;;;;;5.50;5.10;;;17.50;99.90;;;;;;5057168;28;20205;-66
2022/08/09 01:00:22;;;;;;;5.03;4.73;;;17.50;99.90;;;;;;5069296;28;20174;-65
2022/08/09 01:02:52;;;;;;;5.47;4.87;;;17.50;99.90;;;;;;5058276;28;20194;-64
2022/08/09 01:05:51;;;;;;;4.97;4.60;;;17.50;99.90;;;;;;5059742;28;20166;-66
2022/08/09 01:08:27;;;;;;;5.00;4.60;;;17.40;99.90;;;;;;5046190;28;20191;-63
2022/08/09 01:11:22;;;;;;;5.47;5.07;;;17.40;99.90;;;;;;5056551;28;20170;-65
2022/08/09 01:14:02;;;;;;;4.67;4.33;;;17.40;99.90;;;;;;5066642;28;20261;-64
2022/08/09 01:16:39;;;;;;;5.40;4.90;;;17.40;99.90;;;;;;5052846;28;20256;-66
2022/08/09 01:19:33;;;;;;;5.43;5.03;;;17.30;99.90;;;;;;5070151;28;20209;-65
2022/08/09 01:22:20;;;;;;;5.47;5.07;;;17.20;99.90;;;;;;5024497;28;20209;-63
2022/08/09 01:25:07;;;;;;;8.87;4.30;;;17.20;99.90;;;;;;5043503;28;20175;-64
2022/08/09 01:27:35;;;;;;;5.83;4.77;;;17.10;99.90;;;;;;5068911;28;20293;-63
2022/08/09 01:30:06;;;;;;;4.83;4.43;;;17.10;99.90;;;;;;5057362;28;20178;-64
2022/08/09 01:32:37;;;;;;;10.60;5.20;;;17.00;99.90;;;;;;5060471;28;20264;-65
2022/08/09 01:35:08;;;;;;;5.40;4.97;;;17.00;99.90;;;;;;5065188;28;20244;-65
2022/08/09 01:37:37;;;;;;;5.03;4.63;;;17.00;99.90;;;;;;5052508;28;20285;-65
2022/08/09 01:40:05;;;;;;;5.23;4.83;;;17.00;99.90;;;;;;5070881;28;20598;-66
2022/08/09 01:42:33;;;;;;;5.00;4.60;;;17.00;99.90;;;;;;5054437;28;20200;-65
2022/08/09 01:45:00;;;;;;;4.83;4.27;;;16.90;99.90;;;;;;5062696;28;20647;-64
2022/08/09 01:47:27;;;;;;;5.37;4.60;;;17.00;99.90;;;;;;5062392;28;20234;-64
2022/08/09 01:49:54;;;;;;;5.33;4.83;;;16.90;99.90;;;;;;5059153;28;20541;-66
2022/08/09 01:52:21;;;;;;;5.40;4.80;;;16.90;99.90;;;;;;5051240;28;20190;-64
2022/08/09 01:54:55;;;;;;;5.03;4.43;;;16.90;99.90;;;;;;5069370;28;20236;-66
2022/08/09 01:57:32;;;;;;;7.93;5.40;;;16.80;99.90;;;;;;5055890;28;20209;-65
2022/08/09 02:00:01;;;;;;;4.77;4.47;;;16.80;99.90;;;;;;5055490;28;20563;-65
2022/08/09 02:02:30;;;;;;;4.97;4.57;;;16.80;99.90;;;;;;5062816;28;20183;-64
2022/08/09 02:04:58;;;;;;;5.37;4.87;;;16.80;99.90;;;;;;5053967;28;20273;-66
2022/08/09 02:07:25;;;;;;;5.70;5.20;;;16.70;99.90;;;;;;5070514;28;20231;-66
2022/08/09 02:10:04;;;;;;;5.63;5.23;;;16.70;99.90;;;;;;5052045;28;20179;-66
2022/08/09 02:12:32;;;;;;;6.17;5.63;;;16.70;99.90;;;;;;5066487;28;20491;-66
2022/08/09 02:15:01;;;;;;;5.43;5.13;;;16.60;99.90;;;;;;5063710;28;20170;-64
2022/08/09 02:17:30;;;;;;;5.60;5.27;;;16.60;99.90;;;;;;5067216;28;20222;-64
2022/08/09 02:19:56;;;;;;;7.90;5.47;;;16.60;99.90;;;;;;5054620;28;20182;-64
2022/08/09 02:22:41;;;;;;;6.00;5.60;;;16.50;99.90;;;;;;5074130;28;20190;-64
2022/08/09 02:25:14;;;;;;;5.80;5.30;;;16.50;99.90;;;;;;5055248;28;20173;-63
2022/08/09 02:27:46;;;;;;;5.50;4.97;;;16.50;99.90;;;;;;5057693;28;20667;-64
2022/08/09 02:30:13;;;;;;;5.30;4.90;;;16.50;99.90;;;;;;5056069;28;20171;-65
2022/08/09 02:32:44;;;;;;;10.30;5.40;;;16.50;99.90;;;;;;5069059;28;20657;-62
2022/08/09 02:35:17;;;;;;;5.40;5.00;;;16.50;99.90;;;;;;5063050;28;20346;-64
2022/08/09 02:37:45;;;;;;;5.93;5.33;;;16.50;99.90;;;;;;5060207;28;20301;-65
2022/08/09 02:40:15;;;;;;;7.77;5.70;;;16.40;99.90;;;;;;5055474;28;20209;-64
2022/08/09 02:42:43;;;;;;;5.10;4.70;;;16.40;99.90;;;;;;5054305;28;20190;-65
2022/08/09 02:45:14;;;;;;;5.43;5.03;;;16.40;99.90;;;;;;5071679;28;20217;-64
2022/08/09 02:47:42;;;;;;;5.47;5.07;;;16.40;99.90;;;;;;5059699;28;20230;-65
2022/08/09 02:50:16;;;;;;;5.87;5.03;;;16.40;99.90;;;;;;5063712;28;20201;-65
2022/08/09 02:53:05;;;;;;;5.27;4.93;;;16.40;99.90;;;;;;5067453;28;20260;-65
2022/08/09 02:55:33;;;;;;;6.37;5.43;;;16.30;99.90;;;;;;5058479;28;20180;-64
2022/08/09 02:58:01;;;;;;;5.53;5.03;;;16.30;99.90;;;;;;5073121;28;20244;-64
2022/08/09 03:00:27;;;;;;;5.77;5.37;;;16.30;99.90;;;;;;5052631;28;20182;-63
2022/08/09 03:02:55;;;;;;;5.80;5.30;;;16.30;99.90;;;;;;5068001;28;20182;-64
2022/08/09 03:05:21;;;;;;;5.57;5.10;;;16.20;99.90;;;;;;5064658;28;20239;-63
2022/08/09 03:07:50;;;;;;;5.53;5.13;;;16.20;99.90;;;;;;5065274;28;20190;-62
2022/08/09 03:10:16;;;;;;;6.23;5.83;;;16.20;99.90;;;;;;5072065;28;20361;-64
2022/08/09 03:12:43;;;;;;;6.00;5.40;;;16.20;99.90;;;;;;5056173;28;20266;-65
2022/08/09 03:15:11;;;;;;;5.30;5.00;;;16.30;99.90;;;;;;5071963;28;20162;-64
2022/08/09 03:17:37;;;;;;;5.10;4.80;;;16.30;99.90;;;;;;5068626;28;20185;-64
2022/08/09 03:20:06;;;;;;;6.13;5.60;;;16.20;99.90;;;;;;5067976;28;20201;-63
2022/08/09 03:22:38;;;;;;;6.00;5.40;;;16.20;99.90;;;;;;5060888;28;20174;-64
2022/08/09 03:25:05;;;;;;;6.07;5.47;;;16.20;99.90;;;;;;5059768;28;20262;-64
2022/08/09 03:27:32;;;;;;;6.63;5.97;;;16.20;99.90;;;;;;5048735;28;20599;-64
2022/08/09 03:29:58;;;;;;;5.20;4.70;;;16.10;99.90;;;;;;5069974;28;20544;-64
2022/08/09 03:32:26;;;;;;;9.77;6.00;;;16.10;99.90;;;;;;5066466;28;20266;-64
2022/08/09 03:34:52;;;;;;;6.07;5.53;;;16.20;99.90;;;;;;5068917;28;20171;-64
2022/08/09 03:37:17;;;;;;;5.60;5.20;;;16.20;99.90;;;;;;5056677;28;20423;-64
2022/08/09 03:39:44;;;;;;;5.73;5.23;;;16.10;99.90;;;;;;5075063;28;20171;-64
2022/08/09 03:42:09;;;;;;;6.33;5.90;;;16.10;99.90;;;;;;5058142;28;20193;-64
2022/08/09 03:44:35;;;;;;;6.00;5.40;;;16.10;99.90;;;;;;5065622;28;20178;-64
2022/08/09 03:47:01;;;;;;;5.90;5.40;;;16.10;99.90;;;;;;5065862;28;20285;-64
2022/08/09 03:49:28;;;;;;;6.70;5.40;;;16.10;99.90;;;;;;5055178;28;20251;-64
2022/08/09 03:51:57;;;;;;;5.73;4.87;;;16.10;99.90;;;;;;5072456;28;20542;-64
2022/08/09 03:54:25;;;;;;;6.43;5.43;;;16.10;99.90;;;;;;5054578;28;20262;-64
2022/08/09 03:56:52;;;;;;;6.37;5.43;;;16.10;99.90;;;;;;5065977;28;20243;-62
2022/08/09 03:59:18;;;;;;;5.43;4.93;;;16.10;99.90;;;;;;5059467;28;20274;-65
2022/08/09 04:01:45;;;;;;;5.57;5.27;;;16.10;99.90;;;;;;5057205;28;20257;-64
2022/08/09 04:04:12;;;;;;;6.83;5.20;;;16.10;99.90;;;;;;5072195;28;20173;-64
2022/08/09 04:06:38;;;;;;;5.73;5.13;;;16.00;99.90;;;;;;5071926;28;20235;-65
2022/08/09 04:09:05;;;;;;;6.27;5.77;;;15.90;99.90;;;;;;5057552;28;20203;-64
2022/08/09 04:12:00;;;;;;;6.03;5.60;;;15.90;99.90;;;;;;5062596;28;20202;-62
2022/08/09 04:14:25;;;;;;;6.23;5.63;;;15.90;99.90;;;;;;5041037;28;20214;-64
2022/08/09 04:16:51;;;;;;;7.30;5.50;;;15.90;99.90;;;;;;5057242;28;20226;-64
2022/08/09 04:19:16;;;;;;;6.23;5.70;;;15.90;99.90;;;;;;5072100;28;20182;-64
2022/08/09 04:21:44;;;;;;;5.60;5.07;;;15.90;99.90;;;;;;5071389;28;20212;-64
2022/08/09 04:24:09;;;;;;;5.53;5.07;;;15.90;99.90;;;;;;5063732;28;20180;-64
2022/08/09 04:26:35;;;;;;;5.80;5.40;;;15.90;99.90;;;;;;5061647;28;20214;-66
2022/08/09 04:29:01;;;;;;;6.60;6.20;;;15.90;99.90;;;;;;5052347;28;20166;-65
2022/08/09 04:31:26;;;;;;;7.60;6.90;;;15.90;99.90;;;;;;5052891;28;20174;-64
2022/08/09 04:33:52;;;;;;;7.20;6.50;;;16.00;99.90;;;;;;5071919;28;20171;-64
2022/08/09 04:36:18;;;;;;;6.43;5.87;;;16.00;99.90;;;;;;5056906;28;20225;-65
2022/08/09 04:38:43;;;;;;;6.00;5.60;;;16.00;99.90;;;;;;5062043;28;20185;-64
2022/08/09 04:41:09;;;;;;;6.33;5.77;;;16.00;99.90;;;;;;5065471;28;20265;-65
2022/08/09 04:43:34;;;;;;;6.60;6.10;;;16.10;99.90;;;;;;5053463;28;20182;-64
2022/08/09 04:46:00;;;;;;;6.37;5.87;;;16.00;99.90;;;;;;5071493;28;20206;-65
2022/08/09 04:48:26;;;;;;;6.57;5.97;;;16.10;99.90;;;;;;5055273;28;20179;-63
2022/08/09 04:50:52;;;;;;;6.33;5.73;;;16.10;99.90;;;;;;5061786;28;20215;-62
2022/08/09 04:53:17;;;;;;;6.10;5.50;;;16.20;99.90;;;;;;5064913;28;20615;-64
2022/08/09 04:55:43;;;;;;;5.83;5.33;;;16.30;99.90;;;;;;5053271;28;20207;-63
2022/08/09 04:58:09;;;;;;;5.63;5.23;;;16.40;99.90;;;;;;5071273;28;20188;-63
2022/08/09 05:00:35;;;;;;;6.37;5.77;;;16.50;99.90;;;;;;5054249;28;20262;-65
2022/08/09 05:03:02;;;;;;;5.73;5.23;;;16.50;99.90;;;;;;5063666;28;20185;-65
2022/08/09 05:05:28;;;;;;;6.53;5.80;;;16.50;99.90;;;;;;5063019;28;20194;-66
2022/08/09 05:07:54;;;;;;;5.70;5.30;;;16.60;99.90;;;;;;5068171;28;20179;-64
2022/08/09 05:10:20;;;;;;;6.03;5.53;;;16.60;99.90;;;;;;5066309;28;20231;-64
2022/08/09 05:12:45;;;;;;;5.47;5.03;;;16.70;99.90;;;;;;5053198;28;20179;-63
2022/08/09 05:15:11;;;;;;;5.83;5.27;;;16.80;99.90;;;;;;5064361;28;20617;-63
2022/08/09 05:17:37;;;;;;;6.60;6.13;;;16.80;99.90;;;;;;5062616;28;20194;-63
2022/08/09 05:20:03;;;;;;;6.50;5.90;;;16.90;99.90;;;;;;5067416;28;20179;-65
2022/08/09 05:22:28;;;;;;;5.83;5.27;;;16.90;99.90;;;;;;5051404;28;20182;-65
2022/08/09 05:24:54;;;;;;;5.73;5.33;;;17.00;99.90;;;;;;5069299;28;20198;-65
2022/08/09 05:27:20;;;;;;;5.83;5.40;;;17.00;99.90;;;;;;5057104;28;20293;-66
2022/08/09 05:29:45;;;;;;;6.30;5.50;;;17.10;99.90;;;;;;5060198;28;20189;-65
2022/08/09 05:32:11;;;;;;;7.33;6.70;;;17.20;99.90;;;;;;5066312;28;20245;-65
2022/08/09 05:34:36;;;;;;;6.03;5.63;;;17.30;99.90;;;;;;5067214;28;20575;-65
2022/08/09 05:37:04;;;;;;;8.43;5.93;;;17.30;99.90;;;;;;5063501;28;20245;-64
2022/08/09 05:39:30;;;;;;;5.53;5.07;;;17.40;99.90;;;;;;5051446;28;20171;-64
2022/08/09 05:41:56;;;;;;;6.10;5.47;;;17.40;99.90;;;;;;5049538;28;20624;-64
2022/08/09 05:44:22;;;;;;;5.30;4.80;;;17.50;99.90;;;;;;5050697;28;20186;-64
2022/08/09 05:46:48;;;;;;;5.10;4.70;;;17.50;99.90;;;;;;5050899;28;20221;-66
2022/08/09 05:49:13;;;;;;;5.90;5.20;;;17.70;99.90;;;;;;5053691;28;20178;-65
2022/08/09 05:51:39;;;;;;;6.33;5.83;;;17.80;99.90;;;;;;5055378;28;20515;-65
2022/08/09 05:54:04;;;;;;;5.70;5.27;;;18.00;99.90;;;;;;5054759;28;20202;-64
2022/08/09 05:56:30;;;;;;;6.03;5.47;;;18.20;99.90;;;;;;5054984;28;20210;-65
2022/08/09 05:58:58;;;;;;;5.83;5.23;;;18.40;99.90;;;;;;5054984;28;20278;-65
2022/08/09 06:01:25;;;;;;;5.43;4.93;;;18.50;99.90;;;;;;5055115;28;20182;-66
2022/08/09 06:03:51;;;;;;;5.93;5.30;;;18.50;99.90;;;;;;5054630;28;20186;-66
2022/08/09 06:06:17;;;;;;;5.37;4.97;;;18.70;99.90;;;;;;5054748;28;20206;-65
2022/08/09 06:08:42;;;;;;;4.93;4.63;;;18.80;99.90;;;;;;5054653;28;20244;-65
2022/08/09 06:11:08;;;;;;;5.50;4.97;;;18.90;99.90;;;;;;5054727;28;20175;-65
2022/08/09 06:13:34;;;;;;;4.50;4.20;;;19.00;99.90;;;;;;5054517;28;20544;-65
2022/08/09 06:16:01;;;;;;;5.43;5.03;;;19.20;99.90;;;;;;5054567;28;20194;-65
2022/08/09 06:18:27;;;;;;;4.83;4.43;;;19.40;99.90;;;;;;5053936;28;20675;-65
2022/08/09 06:20:55;;;;;;;5.17;4.80;;;19.70;99.90;;;;;;5054279;28;20174;-65
2022/08/09 06:23:21;;;;;;;8.77;5.07;;;19.90;99.90;;;;;;5054753;28;20198;-65
2022/08/09 06:25:47;;;;;;;7.97;4.85;;;20.30;99.90;;;;;;5054413;28;20202;-66
2022/08/09 06:28:12;;;;;;;4.97;4.57;;;20.70;99.90;;;;;;5054690;28;20179;-66
2022/08/09 06:30:38;;;;;;;4.72;4.32;;;21.10;99.90;;;;;;5054355;28;20288;-66
2022/08/09 06:33:03;;;;;;;6.18;4.60;;;21.40;99.90;;;;;;5054690;28;20309;-65
2022/08/09 06:35:29;;;;;;;4.95;4.30;;;21.60;99.90;;;;;;5053783;28;20547;-65
2022/08/09 06:37:55;;;;;;;4.53;4.13;;;21.80;99.90;;;;;;5066260;28;20647;-66
2022/08/09 06:40:20;;;;;;;5.10;4.40;;;22.20;99.90;;;;;;5044272;28;20222;-65
2022/08/09 06:42:46;;;;;;;5.75;4.07;;;22.20;99.90;;;;;;5034194;28;20203;-65
2022/08/09 06:45:11;;;;;;;4.45;4.05;;;22.40;99.90;;;;;;5050764;28;20178;-64
2022/08/09 06:47:37;;;;;;;4.00;3.70;;;22.50;99.90;;;;;;5054259;28;20194;-64
2022/08/09 06:50:04;;;;;;;5.00;4.00;;;22.70;99.90;;;;;;5054223;28;20295;-65
2022/08/09 06:52:30;;;;;;;4.30;3.90;;;23.00;99.90;;;;;;5052688;28;20183;-65
2022/08/09 06:54:55;;;;;;;6.85;3.58;;;23.20;99.90;;;;;;5053500;28;20170;-66
2022/08/09 06:57:21;;;;;;;9.13;4.00;;;23.50;99.90;;;;;;5054031;28;20199;-65
2022/08/09 06:59:47;;;;;;;4.50;4.10;;;23.70;99.90;;;;;;5053197;28;20179;-65
2022/08/09 07:02:12;;;;;;;4.07;3.60;;;23.90;99.90;;;;;;5053899;28;20262;-65
2022/08/09 07:04:38;;;;;;;4.28;3.75;;;24.10;99.90;;;;;;5053307;28;20182;-64
2022/08/09 07:07:04;;;;;;;3.97;3.53;;;24.30;99.90;;;;;;5053558;28;20289;-66
2022/08/09 07:09:30;;;;;;;4.88;3.88;;;24.60;99.90;;;;;;5054115;28;20201;-66
2022/08/09 07:11:55;;;;;;;4.32;3.92;;;24.80;99.90;;;;;;5053792;28;20624;-66
2022/08/09 07:14:21;;;;;;;3.53;3.22;;;24.80;99.90;;;;;;5053534;28;20171;-66
2022/08/09 07:16:46;;;;;;;3.90;3.60;;;25.00;99.90;;;;;;5053360;28;20236;-65
2022/08/09 07:19:13;;;;;;;3.50;3.30;;;25.50;99.90;;;;;;5052853;28;20170;-66
2022/08/09 07:21:39;;;;;;;3.83;3.53;;;25.80;99.90;;;;;;5053458;28;20191;-66
2022/08/09 07:24:06;;;;;;;5.63;3.97;;;26.10;99.90;;;;;;5053317;28;20633;-65
2022/08/09 07:26:32;;;;;;;4.07;3.53;;;26.20;99.90;;;;;;5053273;28;20297;-65
2022/08/09 07:28:58;;;;;;;4.10;3.72;;;26.70;99.90;;;;;;5052953;28;20174;-65
2022/08/09 07:31:23;;;;;;;4.25;3.95;;;27.10;99.90;;;;;;5053840;28;20167;-65
2022/08/09 07:33:49;;;;;;;5.15;3.65;;;27.00;99.90;;;;;;5053697;28;20225;-65
2022/08/09 07:36:15;;;;;;;4.35;3.53;;;27.30;99.90;;;;;;5052889;28;20210;-66
2022/08/09 07:38:41;;;;;;;4.38;3.38;;;27.60;99.90;;;;;;5053357;28;20185;-65
2022/08/09 07:41:07;;;;;;;4.05;3.00;;;28.00;99.90;;;;;;5053432;28;20534;-66
2022/08/09 07:43:33;;;;;;;3.58;3.10;;;28.10;99.90;;;;;;5053030;28;20178;-66
2022/08/09 07:45:58;;;;;;;3.67;3.30;;;28.40;99.90;;;;;;5053034;28;20218;-66
2022/08/09 07:48:24;;;;;;;4.05;3.72;;;28.60;99.90;;;;;;5053246;28;20174;-66
2022/08/09 07:50:50;;;;;;;3.90;3.60;;;28.50;99.90;;;;;;5052940;28;20179;-66
2022/08/09 07:53:15;;;;;;;7.95;3.90;;;28.50;99.90;;;;;;5053196;28;20163;-64
2022/08/09 07:55:41;;;;;;;6.68;3.80;;;28.50;99.90;;;;;;5052767;28;20191;-66
2022/08/09 07:58:07;;;;;;;3.65;3.35;;;28.40;99.90;;;;;;5053101;28;20175;-66
2022/08/09 08:00:33;;;;;;;6.10;3.58;;;28.70;99.90;;;;;;5052933;28;20207;-65
2022/08/09 08:03:00;;;;;;;4.18;3.30;;;29.10;99.90;;;;;;5052741;28;20220;-65
2022/08/09 08:05:26;;;;;;;5.47;3.10;;;29.50;99.90;;;;;;5052513;28;20644;-66
2022/08/09 08:07:53;;;;;;;3.50;3.20;;;29.50;99.90;;;;;;5052765;28;20171;-65
2022/08/09 08:10:20;;;;;;;6.75;3.80;;;29.40;99.90;;;;;;5052935;28;20224;-64
2022/08/09 08:12:46;;;;;;;3.67;3.33;;;29.60;99.90;;;;;;5051589;28;20672;-64
2022/08/09 08:15:18;;;;;;;3.47;3.17;;;29.90;99.90;;;;;;5052436;28;20179;-64
2022/08/09 08:17:50;;;;;;;3.40;3.05;;;30.00;99.90;;;;;;5052540;28;20601;-66
2022/08/09 08:20:17;;;;;;;4.03;3.50;;;30.10;99.90;;;;;;5052605;28;20675;-65
2022/08/09 08:22:43;;;;;;;3.45;3.15;;;30.20;99.90;;;;;;5052379;28;20257;-66
2022/08/09 08:25:10;;;;;;;4.70;3.10;;;30.40;99.90;;;;;;5052513;28;20584;-66
2022/08/09 08:27:35;;;;;;;4.65;3.40;;;30.60;99.90;;;;;;5052544;28;20221;-66
2022/08/09 08:30:01;;;;;;;3.80;3.35;;;30.70;99.90;;;;;;5052275;28;20170;-65
2022/08/09 08:32:29;;;;;;;3.60;3.30;;;30.70;99.90;;;;;;5052371;28;20186;-64
2022/08/09 08:34:59;;;;;;;3.75;3.35;;;30.90;99.90;;;;;;5051867;28;20250;-66
2022/08/09 08:37:28;;;;;;;3.58;3.30;;;31.10;99.90;;;;;;5052124;28;20202;-66
2022/08/09 08:39:54;;;;;;;5.65;4.20;;;31.10;99.90;;;;;;5052075;28;20604;-66
2022/08/09 08:42:22;;;;;;;4.68;3.35;;;30.90;99.90;;;;;;5052222;28;20266;-66
2022/08/09 08:44:59;;;;;;;4.22;3.40;;;31.10;99.90;;;;;;5051957;28;20261;-65
2022/08/09 08:47:27;;;;;;;5.00;3.28;;;31.40;99.90;;;;;;5052111;28;20225;-65
2022/08/09 08:49:59;;;;;;;2.95;2.75;;;31.40;99.90;;;;;;5052479;28;20166;-65
2022/08/09 08:52:28;;;;;;;4.20;3.30;;;31.60;99.90;;;;;;5052065;28;20159;-66
2022/08/09 08:54:56;;;;;;;5.80;3.35;;;31.60;99.90;;;;;;5051720;28;20174;-65
2022/08/09 08:57:22;;;;;;;4.40;3.30;;;31.10;99.90;;;;;;5051914;28;20202;-65
2022/08/09 08:59:49;;;;;;;4.18;3.40;;;31.10;99.90;;;;;;5051806;28;20174;-64
2022/08/09 09:02:27;;;;;;;3.75;3.45;;;30.80;99.90;;;;;;5052005;28;20174;-65
2022/08/09 09:04:56;;;;;;;3.30;3.03;;;31.20;99.90;;;;;;5051417;28;20178;-65
2022/08/09 09:07:24;;;;;;;4.70;3.50;;;31.30;99.90;;;;;;5051670;28;20214;-65
2022/08/09 09:09:51;;;;;;;4.18;3.20;;;31.20;99.90;;;;;;5051646;28;20171;-65
2022/08/09 09:12:20;;;;;;;5.03;3.40;;;31.30;99.90;;;;;;5052017;28;20170;-65
2022/08/09 09:14:47;;;;;;;3.50;3.20;;;31.70;99.90;;;;;;5051174;28;20258;-65
2022/08/09 09:17:13;;;;;;;3.60;3.30;;;31.70;99.90;;;;;;5051658;28;20688;-65
2022/08/09 09:19:39;;;;;;;3.50;3.30;;;31.80;99.90;;;;;;5051627;28;20178;-65
2022/08/09 09:22:07;;;;;;;4.40;3.72;;;32.00;99.90;;;;;;5051566;28;20670;-66
2022/08/09 09:24:51;;;;;;;3.20;2.90;;;31.60;99.40;;;;;;5051103;28;20181;-65
2022/08/09 09:27:24;;;;;;;3.50;3.20;;;31.50;99.80;;;;;;5051367;28;20210;-65
2022/08/09 09:29:50;;;;;;;3.47;3.17;;;31.70;99.90;;;;;;5051480;28;20178;-66
2022/08/09 09:32:24;;;;;;;3.35;3.05;;;32.10;99.70;;;;;;5051583;28;20175;-66
2022/08/09 09:35:07;;;;;;;4.53;2.72;;;32.20;99.90;;;;;;5050912;28;20194;-65
2022/08/09 09:37:33;;;;;;;3.47;2.90;;;32.20;97.60;;;;;;5050674;28;20202;-65
2022/08/09 09:39:59;;;;;;;3.85;3.55;;;32.10;98.60;;;;;;5051318;28;20181;-65
2022/08/09 09:42:28;;;;;;;3.70;3.30;;;31.90;97.10;;;;;;5051412;28;20178;-65
2022/08/09 09:45:03;;;;;;;3.42;3.13;;;31.50;96.90;;;;;;5050884;28;20167;-65
2022/08/09 09:47:29;;;;;;;4.68;3.90;;;31.20;97.30;;;;;;5051394;28;20570;-65
2022/08/09 09:49:56;;;;;;;7.53;3.80;;;31.30;98.90;;;;;;5051268;28;20167;-65
2022/08/09 09:52:22;;;;;;;3.72;3.30;;;31.50;99.10;;;;;;5051249;28;20540;-66
2022/08/09 09:54:49;;;;;;;4.18;3.33;;;31.50;97.10;;;;;;5050837;28;20171;-65
2022/08/09 09:57:22;;;;;;;3.25;2.95;;;31.50;96.90;;;;;;5051400;28;20198;-65
2022/08/09 09:59:50;;;;;;;4.82;3.03;;;31.80;99.10;;;;;;5051207;28;20258;-65
2022/08/09 10:02:17;;;;;;;3.38;3.17;;;32.20;99.00;;;;;;5051228;28;20185;-66
2022/08/09 10:04:44;;;;;;;4.18;3.00;;;32.30;96.20;;;;;;5050616;28;20166;-65
2022/08/09 10:07:26;;;;;;;3.38;3.00;;;32.40;96.10;;;;;;5051069;28;20633;-65
2022/08/09 10:09:55;;;;;;;3.55;3.25;;;32.30;96.10;;;;;;5051371;28;20178;-64
2022/08/09 10:12:38;;;;;;;3.33;3.03;;;32.20;95.70;;;;;;5051480;28;20167;-65
2022/08/09 10:15:04;;;;;;;3.10;2.83;;;32.30;96.50;;;;;;5050772;28;20166;-65
2022/08/09 10:17:34;;;;;;;6.40;3.80;;;31.90;94.30;;;;;;5051231;28;20567;-65
2022/08/09 10:20:02;;;;;;;5.68;3.33;;;31.70;96.40;;;;;;5051265;28;20241;-65
2022/08/09 10:22:33;;;;;;;3.50;3.20;;;31.80;96.10;;;;;;5051226;28;20543;-65
2022/08/09 10:24:59;;;;;;;3.35;3.15;;;32.30;96.20;;;;;;5050578;28;20667;-65
2022/08/09 10:27:25;;;;;;;4.63;3.30;;;32.50;93.60;;;;;;5050990;28;20221;-65
2022/08/09 10:29:51;;;;;;;3.90;3.45;;;32.30;92.90;;;;;;5050875;28;20669;-65
2022/08/09 10:32:18;;;;;;;3.17;2.95;;;32.30;93.90;;;;;;5051106;28;20237;-65
2022/08/09 10:34:45;;;;;;;4.82;3.45;;;32.40;94.70;;;;;;5050451;28;20254;-65
2022/08/09 10:37:11;;;;;;;3.80;3.40;;;32.60;93.40;;;;;;5054163;28;20214;-65
2022/08/09 10:39:39;;;;;;;3.40;3.10;;;32.40;93.10;;;;;;5054580;28;20174;-66
2022/08/09 10:42:05;;;;;;;3.90;3.60;;;32.30;94.80;;;;;;5054382;28;20171;-65
2022/08/09 10:44:33;;;;;;;3.50;3.17;;;32.30;94.70;;;;;;5054302;28;20579;-67
2022/08/09 10:47:36;;;;;;;4.05;3.45;;;32.40;94.40;;;;;;5054081;28;20551;-66
2022/08/09 10:50:10;;;;;;;3.63;3.28;;;32.10;93.70;;;;;;5054621;28;20170;-66
2022/08/09 10:52:51;;;;;;;5.65;3.50;;;32.30;94.40;;;;;;5054427;28;20579;-66
2022/08/09 10:55:19;;;;;;;3.72;3.05;;;32.20;92.80;;;;;;5053911;28;20167;-65
2022/08/09 10:57:45;;;;;;;4.03;3.00;;;32.20;93.60;;;;;;5054200;28;20174;-67
2022/08/09 11:00:30;;;;;;;3.38;3.08;;;32.50;93.20;;;;;;5054176;28;20258;-67
2022/08/09 11:02:56;;;;;;;4.97;2.97;;;32.80;92.40;;;;;;5053918;28;20253;-66
2022/08/09 11:05:23;;;;;;;3.45;3.03;;;32.90;92.80;;;;;;5053555;28;20175;-67
2022/08/09 11:07:49;;;;;;;3.67;2.83;;;33.10;92.10;;;;;;5054010;28;20171;-67
2022/08/09 11:10:36;;;;;;;3.78;3.00;;;33.30;94.60;;;;;;5053964;28;20182;-65
2022/08/09 11:13:12;;;;;;;4.38;3.00;;;33.80;93.40;;;;;;5053507;28;20170;-66
2022/08/09 11:15:38;;;;;;;4.18;2.70;;;34.10;91.30;;;;;;5053602;28;20174;-66
2022/08/09 11:18:03;;;;;;;3.80;2.85;;;34.30;89.80;;;;;;5053783;28;20171;-66
2022/08/09 11:20:44;;;;;;;4.22;3.08;;;34.20;88.60;;;;;;5053768;28;20539;-65
2022/08/09 11:23:10;;;;;;;3.45;3.25;;;33.80;88.70;;;;;;5053741;28;20232;-66
2022/08/09 11:25:39;;;;;;;3.28;2.97;;;33.90;87.60;;;;;;5053288;28;20224;-66
2022/08/09 11:28:26;;;;;;;3.13;2.92;;;33.80;87.30;;;;;;5053616;28;20174;-66
2022/08/09 11:30:52;;;;;;;3.10;2.90;;;33.70;88.20;;;;;;5053324;28;20167;-67
2022/08/09 11:33:18;;;;;;;5.15;3.17;;;33.60;87.50;;;;;;5053539;28;20201;-66
2022/08/09 11:35:55;;;;;;;5.88;3.70;;;33.20;86.40;;;;;;5053136;28;20597;-67
2022/08/09 11:38:27;;;;;;;3.72;3.25;;;33.00;88.90;;;;;;5052847;28;20198;-66
2022/08/09 11:40:53;;;;;;;4.00;2.95;;;33.20;89.20;;;;;;5053249;28;20174;-67
2022/08/09 11:43:45;;;;;;;4.28;3.40;;;33.20;89.20;;;;;;5053357;28;20182;-66
2022/08/09 11:46:10;;;;;;;3.55;3.08;;;33.50;88.90;;;;;;5053149;28;20750;-66
2022/08/09 11:48:52;;;;;;;3.35;2.90;;;33.60;85.40;;;;;;5053180;28;20202;-66
2022/08/09 11:51:20;;;;;;;4.78;3.25;;;33.60;83.00;;;;;;5053277;28;20175;-65
2022/08/09 11:53:48;;;;;;;3.20;3.00;;;33.60;87.30;;;;;;5052765;28;20175;-66
2022/08/09 11:56:13;;;;;;;4.00;3.60;;;33.50;85.30;;;;;;5053018;28;20194;-67
2022/08/09 11:58:48;;;;;;;4.00;3.05;;;33.60;83.60;;;;;;5052954;28;20178;-67
2022/08/09 12:01:16;;;;;;;3.38;3.08;;;33.70;85.00;;;;;;5053131;28;20227;-66
2022/08/09 12:03:43;;;;;;;3.15;2.85;;;34.00;83.50;;;;;;5052487;28;20213;-65
2022/08/09 12:06:21;;;;;;;4.90;3.38;;;33.80;82.10;;;;;;5052739;28;20206;-67
2022/08/09 12:08:53;;;;;;;4.45;3.50;;;33.60;82.10;;;;;;5052755;28;20179;-67
2022/08/09 12:11:24;;;;;;;4.55;3.75;;;33.30;82.80;;;;;;5052945;28;20167;-66
2022/08/09 12:13:52;;;;;;;3.42;3.13;;;33.20;83.00;;;;;;5052439;28;20163;-66
2022/08/09 12:16:34;;;;;;;5.43;3.42;;;33.30;83.70;;;;;;5052707;28;20683;-67
2022/08/09 12:19:01;;;;;;;7.40;3.42;;;33.50;84.20;;;;;;5052443;28;20178;-66
2022/08/09 12:21:31;;;;;;;3.58;3.28;;;33.60;83.10;;;;;;5052549;28;20848;-66
2022/08/09 12:24:00;;;;;;;3.63;3.30;;;33.80;85.00;;;;;;5057854;28;20224;-66
2022/08/09 12:26:37;;;;;;;3.33;3.13;;;33.80;83.40;;;;;;5058327;28;20213;-66
2022/08/09 12:29:02;;;;;;;4.18;3.47;;;34.10;86.00;;;;;;5052376;28;20175;-66
2022/08/09 12:31:28;;;;;;;3.80;3.00;;;34.70;83.90;;;;;;5052445;28;20178;-66
2022/08/09 12:33:54;;;;;;;4.45;3.05;;;35.10;79.70;;;;;;5071337;28;20181;-66
2022/08/09 12:36:24;;;;;;;6.00;3.10;;;35.20;78.90;;;;;;5056422;28;20260;-66
2022/08/09 12:38:51;;;;;;;2.70;2.50;;;35.20;80.00;;;;;;5062215;28;20259;-65
2022/08/09 12:41:27;;;;;;;3.35;3.05;;;35.10;76.50;;;;;;5063696;28;20194;-66
2022/08/09 12:43:54;;;;;;;3.05;2.75;;;34.80;77.80;;;;;;5054839;28;20548;-66
2022/08/09 12:46:21;;;;;;;4.72;3.03;;;34.90;77.10;;;;;;5064521;28;20206;-65
2022/08/09 12:48:47;;;;;;;4.85;3.47;;;34.60;73.70;;;;;;5069768;28;20252;-66
2022/08/09 12:51:13;;;;;;;2.90;2.70;;;34.70;77.40;;;;;;5057857;28;20182;-67
2022/08/09 12:53:40;;;;;;;5.78;3.42;;;35.10;76.60;;;;;;5060246;28;20269;-66
2022/08/09 12:56:21;;;;;;;3.40;3.10;;;34.90;74.00;;;;;;5060592;28;20197;-66